Latest Weather Observations for Mount Lofty

IDS60801

Issued at 5:35 pm CST Monday 28 July 2014 (issued every 30 minutes, with the page automatically refreshed every 10 minutes)

About weather observations | Map of weather stations | Latest weather observations for SA | Other Formats
Station Details ID: 023842 Name: MOUNT LOFTY Lat: -34.98 Lon: 138.71 Height: 685.0 m
Data from the previous 72 hours. | See also: Recent months at Mount Lofty
Date/Time
CST
Temp
°C
App
Temp
°C
Dew
Point
Rel
Hum
%
Delta-T
°C
Wind Press
QNH
hPa
Press
MSL
hPa
Rain
since 9 am
mm
Dir
 
Spd
km/h
Gust
km/h
Spd
kts
Gust
kts
28/05:30pm 9.1 3.6 9.1 100 0.0 WNW 28 50 15 27 - - 0.0
28/05:11pm 9.1 3.6 9.1 100 0.0 WNW 28 54 15 29 - - 0.0
28/05:00pm 9.0 3.5 9.0 100 0.0 WNW 28 44 15 24 - - 0.0
28/04:51pm 8.9 3.3 8.9 100 0.0 WNW 28 48 15 26 - - 0.0
28/04:30pm 9.1 4.0 9.1 100 0.0 WNW 26 44 14 24 - - 0.0
28/04:11pm 9.4 4.0 9.4 100 0.0 WNW 28 48 15 26 - - 0.0
28/04:00pm 9.3 3.8 9.3 100 0.0 WNW 28 39 15 21 - - 0.0
28/03:30pm 9.6 5.0 9.6 100 0.0 WNW 24 41 13 22 - - 0.0
28/03:00pm 9.8 5.2 9.8 100 0.0 WNW 24 43 13 23 - - 0.0
28/02:30pm 9.5 5.6 9.5 100 0.0 WNW 20 35 11 19 - - 0.0
28/02:00pm 9.2 5.2 9.2 100 0.0 WNW 20 37 11 20 - - 0.0
28/01:30pm 9.1 4.7 9.1 100 0.0 WNW 22 33 12 18 - - 0.0
28/01:00pm 9.0 5.2 9.0 100 0.0 WNW 19 33 10 18 - - 0.0
28/12:30pm 8.7 4.8 8.7 100 0.0 WNW 19 32 10 17 - - 0.0
28/12:00pm 8.5 4.6 8.5 100 0.0 WNW 19 32 10 17 - - 0.0
28/11:30am 8.0 3.9 8.0 100 0.0 WNW 19 32 10 17 - - 0.0
28/11:00am 7.8 3.7 7.8 100 0.0 WNW 19 26 10 14 - - 0.0
28/10:30am 7.5 3.3 7.5 100 0.0 WNW 19 32 10 17 - - 0.0
28/10:00am 7.4 3.0 7.4 100 0.0 WNW 20 32 11 17 - - 0.0
28/09:30am 7.0 2.5 7.0 100 0.0 WNW 20 35 11 19 - - 0.0
28/09:00am 6.9 2.4 6.9 100 0.0 WNW 20 32 11 17 - - 0.0
28/08:30am 7.0 2.5 7.0 100 0.0 WNW 20 32 11 17 - - 0.0
28/08:00am 6.7 2.7 6.7 100 0.0 WNW 17 30 9 16 - - 0.0
28/07:30am 6.5 2.1 6.5 100 0.0 WNW 19 28 10 15 - - 0.0
28/07:00am 6.5 2.8 6.5 100 0.0 WNW 15 26 8 14 - - 0.0
28/06:30am 6.7 2.7 6.7 100 0.0 WNW 17 28 9 15 - - 0.0
28/06:00am 6.8 2.8 6.7 99 0.0 WNW 17 28 9 15 - - 0.0
28/05:30am 6.9 2.7 5.7 92 0.6 WNW 17 30 9 16 - - 0.0
28/05:00am 7.4 3.2 5.9 90 0.7 WNW 17 28 9 15 - - 0.0
28/04:30am 7.4 2.8 5.5 88 0.9 WNW 19 30 10 16 - - 0.0
28/04:00am 7.0 2.0 4.7 85 1.0 WNW 20 30 11 16 - - 0.0
28/03:30am 7.1 2.2 4.1 81 1.3 WNW 19 30 10 16 - - 0.0
28/03:00am 7.5 2.3 3.6 76 1.7 WNW 20 32 11 17 - - 0.0
28/02:30am 8.3 2.7 3.2 70 2.3 WNW 22 37 12 20 - - 0.0
28/02:00am 8.8 3.1 3.0 67 2.6 WNW 22 37 12 20 - - 0.0
28/01:30am 9.2 3.1 3.0 65 2.8 WNW 24 41 13 22 - - 0.0
28/01:00am 9.6 3.5 2.9 63 3.0 WNW 24 37 13 20 - - 0.0
28/12:30am 10.3 3.8 2.9 60 3.3 WNW 26 39 14 21 - - 0.0
28/12:11am 10.4 3.6 3.0 60 3.3 WNW 28 48 15 26 - - 0.0
28/12:00am 10.5 4.1 3.1 60 3.3 WNW 26 41 14 22 - - 0.0
 
Date/Time
CST
Temp
°C
App
Temp
°C
Dew
Point
Rel
Hum
%
Delta-T
°C
Wind Press
QNH
hPa
Press
MSL
hPa
Rain
since 9 am
mm
Dir
 
Spd
km/h
Gust
km/h
Spd
kts
Gust
kts
27/11:30pm 10.5 4.1 3.1 60 3.3 WNW 26 46 14 25 - - 0.0
27/11:00pm 10.6 4.2 3.2 60 3.4 WNW 26 43 14 23 - - 0.0
27/10:30pm 10.3 4.3 3.3 62 3.2 WNW 24 37 13 20 - - 0.0
27/10:00pm 10.4 4.8 3.2 61 3.3 WNW 22 39 12 21 - - 0.0
27/09:30pm 10.9 4.9 3.2 59 3.5 NW 24 43 13 23 - - 0.0
27/09:00pm 11.4 4.9 2.9 56 3.9 NW 26 50 14 27 - - 0.0
27/08:30pm 11.0 5.0 3.3 59 3.5 NW 24 50 13 27 - - 0.0
27/08:00pm 11.1 5.1 3.4 59 3.5 NW 24 43 13 23 - - 0.0
27/07:30pm 11.1 4.8 3.9 61 3.3 NW 26 43 14 23 - - 0.0
27/07:00pm 10.9 4.7 4.4 64 3.0 NW 26 43 14 23 - - 0.0
27/06:30pm 10.7 4.6 4.8 67 2.8 NW 26 41 14 22 - - 0.0
27/06:00pm 10.7 4.7 5.3 69 2.6 NW 26 46 14 25 - - 0.0
27/05:30pm 10.6 4.7 5.6 71 2.4 NW 26 46 14 25 - - 0.0
27/05:08pm 10.7 4.4 5.5 70 2.5 WNW 28 50 15 27 - - 0.0
27/05:00pm 10.6 4.7 5.6 71 2.4 WNW 26 41 14 22 - - 0.0
27/04:30pm 10.7 4.4 5.9 72 2.3 WNW 28 43 15 23 - - 0.0
27/04:00pm 10.9 5.6 6.6 75 2.1 WNW 24 43 13 23 - - 0.0
27/03:30pm 11.5 7.1 7.2 75 2.1 NW 20 39 11 21 - - 0.0
27/03:00pm 10.7 5.4 6.8 77 1.9 NW 24 39 13 21 - - 0.0
27/02:30pm 10.6 5.3 6.9 78 1.8 NW 24 39 13 21 - - 0.0
27/02:00pm 10.5 5.1 6.5 76 2.0 NW 24 37 13 20 - - 0.0
27/01:30pm 10.1 4.3 6.1 76 1.9 WNW 26 44 14 24 - - 0.0
27/01:00pm 9.9 3.6 5.7 75 2.0 WNW 28 46 15 25 - - 0.0
27/12:30pm 9.8 3.0 5.0 72 2.3 WNW 30 50 16 27 - - 0.0
27/12:00pm 10.0 3.6 5.2 72 2.3 WNW 28 52 15 28 - - 0.0
27/11:30am 9.9 3.4 4.9 71 2.3 NW 28 50 15 27 - - 0.0
27/11:17am 9.6 3.1 4.6 71 2.3 NW 28 52 15 28 - - 0.0
27/11:00am 9.4 3.3 4.6 72 2.2 NW 26 43 14 23 - - 0.0
27/10:45am 9.6 3.1 4.6 71 2.3 NW 28 46 15 25 - - 0.0
27/10:30am 9.4 3.7 4.8 73 2.1 NW 24 41 13 22 - - 0.0
27/10:00am 9.4 3.6 4.6 72 2.2 NW 24 39 13 21 - - 0.0
27/09:30am 8.2 2.3 4.0 75 1.9 NW 24 37 13 20 - - 0.0
27/09:00am 8.3 2.8 4.1 75 1.9 NW 22 41 12 22 - - 0.0
27/08:30am 7.8 2.7 4.2 78 1.6 NW 20 35 11 19 - - 0.0
27/08:00am 7.9 2.0 4.1 77 1.7 NW 24 39 13 21 - - 0.0
27/07:30am 7.6 2.1 4.2 79 1.5 NW 22 37 12 20 - - 0.0
27/07:00am 7.3 1.5 4.3 81 1.4 NW 24 39 13 21 - - 0.0
27/06:30am 7.1 1.7 4.6 84 1.1 NW 22 39 12 21 - - 0.0
27/06:00am 6.8 1.8 4.6 86 1.0 NW 20 37 11 20 - - 0.0
27/05:30am 7.0 1.7 5.0 87 0.9 NW 22 41 12 22 - - 0.0
27/05:00am 6.8 1.9 5.1 89 0.8 NW 20 35 11 19 - - 0.0
27/04:30am 7.0 1.7 5.2 88 0.8 NW 22 33 12 18 - - 0.0
27/04:00am 7.3 2.4 5.1 86 1.0 NW 20 33 11 18 - - 0.0
27/03:30am 7.7 2.8 5.2 84 1.2 NW 20 35 11 19 - - 0.0
27/03:00am 8.1 3.2 5.2 82 1.3 NW 20 35 11 19 - - 0.0
27/02:30am 8.1 3.5 5.4 83 1.3 NW 19 33 10 18 - - 0.0
27/02:00am 8.0 3.6 4.9 81 1.4 NW 17 32 9 17 - - 0.0
27/01:30am 8.1 3.6 4.3 77 1.7 NW 17 26 9 14 - - 0.0
27/01:00am 7.9 3.3 3.9 76 1.8 NNW 17 28 9 15 - - 0.0
27/12:30am 8.0 3.5 4.0 76 1.8 NW 17 26 9 14 - - 0.0
27/12:00am 7.7 3.4 3.4 74 1.9 NNW 15 26 8 14 - - 0.0
 
Date/Time
CST
Temp
°C
App
Temp
°C
Dew
Point
Rel
Hum
%
Delta-T
°C
Wind Press
QNH
hPa
Press
MSL
hPa
Rain
since 9 am
mm
Dir
 
Spd
km/h
Gust
km/h
Spd
kts
Gust
kts
26/11:30pm 7.7 3.4 3.4 74 1.9 NNW 15 24 8 13 - - 0.0
26/11:00pm 7.9 3.6 3.4 73 2.0 NNW 15 20 8 11 - - 0.0
26/10:30pm 7.8 4.4 4.0 77 1.7 NNW 11 17 6 9 - - 0.0
26/10:00pm 7.6 4.3 4.7 82 1.3 NNW 11 17 6 9 - - 0.0
26/09:30pm 7.2 4.4 7.1 99 0.0 NNW 11 15 6 8 - - 0.0
26/09:00pm 7.3 4.6 7.3 100 0.0 NNW 11 17 6 9 - - 0.0
26/08:30pm 7.2 4.5 7.2 100 0.0 NNW 11 17 6 9 - - 0.0
26/08:00pm 7.0 4.2 7.0 100 0.0 NNW 11 15 6 8 - - 0.0
26/07:30pm 6.8 4.7 6.8 100 0.0 NW 7 13 4 7 - - 0.0
26/07:00pm 6.7 4.2 6.7 100 0.0 NW 9 13 5 7 - - 0.0
26/06:30pm 6.8 4.4 6.8 100 0.0 WNW 9 15 5 8 - - 0.0
26/06:00pm 6.9 4.1 6.9 100 0.0 WNW 11 15 6 8 - - 0.0
26/05:30pm 7.4 4.7 7.4 100 0.0 WNW 11 17 6 9 - - 0.0
26/05:00pm 8.1 5.6 8.1 100 0.0 WNW 11 20 6 11 - - 0.0
26/04:30pm 8.8 6.1 8.8 100 0.0 NW 13 22 7 12 - - 0.0
26/04:00pm 9.3 6.7 9.3 100 0.0 WNW 13 20 7 11 - - 0.0
26/03:30pm 8.8 6.1 8.8 100 0.0 NW 13 20 7 11 - - 0.0
26/03:00pm 9.3 7.1 9.3 100 0.0 WNW 11 20 6 11 - - 0.0
26/02:30pm 9.0 6.7 9.0 100 0.0 WNW 11 19 6 10 - - 0.0
26/02:00pm 8.8 6.8 8.8 100 0.0 WNW 9 20 5 11 - - 0.0
26/01:30pm 8.7 6.7 8.7 100 0.0 WNW 9 17 5 9 - - 0.0
26/01:00pm 8.2 5.7 8.2 100 0.0 WNW 11 20 6 11 - - 0.0
26/12:30pm 7.8 5.2 7.8 100 0.0 WNW 11 20 6 11 - - 0.0
26/12:00pm 7.8 5.6 7.8 100 0.0 WNW 9 20 5 11 - - 0.0
26/11:30am 7.9 5.3 7.9 100 0.0 WNW 11 20 6 11 - - 0.0
26/11:00am 7.6 5.7 7.6 100 0.0 WNW 7 13 4 7 - - 0.0
26/10:30am 7.6 5.7 7.6 100 0.0 WNW 7 13 4 7 - - 0.0
26/10:00am 7.7 5.5 7.7 100 0.0 WNW 9 17 5 9 - - 0.0
26/09:30am 7.8 6.0 7.8 100 0.0 WNW 7 13 4 7 - - 0.0
26/09:00am 7.5 5.6 7.5 100 0.0 W 7 13 4 7 - - 4.8
26/08:30am 7.6 5.9 7.6 100 0.0 W 6 11 3 6 - - 4.8
26/08:00am 7.6 5.9 7.6 100 0.0 W 6 13 3 7 - - 4.8
26/07:30am 7.5 5.8 7.5 100 0.0 W 6 9 3 5 - - 4.8
26/07:00am 7.7 6.0 7.7 100 0.0 W 6 13 3 7 - - 4.8
26/06:30am 7.6 5.7 7.6 100 0.0 W 7 13 4 7 - - 4.8
26/06:00am 7.5 5.6 7.5 100 0.0 W 7 19 4 10 - - 4.8
26/05:30am 7.7 6.0 7.7 100 0.0 W 6 11 3 6 - - 4.8
26/05:00am 7.8 6.2 7.8 100 0.0 W 6 15 3 8 - - 4.6
26/04:30am 7.9 6.3 7.9 100 0.0 W 6 11 3 6 - - 4.6
26/04:00am 8.0 6.2 8.0 100 0.0 W 7 15 4 8 - - 4.6
26/03:30am 8.0 5.8 8.0 100 0.0 WNW 9 19 5 10 - - 4.4
26/03:00am 8.0 6.2 8.0 100 0.0 WNW 7 17 4 9 - - 4.4
26/02:30am 8.0 6.2 8.0 100 0.0 W 7 15 4 8 - - 4.4
26/02:00am 8.0 6.2 8.0 100 0.0 W 7 15 4 8 - - 4.4
26/01:30am 8.0 6.2 8.0 100 0.0 W 7 15 4 8 - - 4.4
26/01:00am 8.1 6.0 8.1 100 0.0 W 9 17 5 9 - - 4.4
26/12:30am 7.9 5.7 7.9 100 0.0 W 9 17 5 9 - - 4.4
26/12:00am 7.9 6.1 7.9 100 0.0 W 7 19 4 10 - - 4.4
 
Date/Time
CST
Temp
°C
App
Temp
°C
Dew
Point
Rel
Hum
%
Delta-T
°C
Wind Press
QNH
hPa
Press
MSL
hPa
Rain
since 9 am
mm
Dir
 
Spd
km/h
Gust
km/h
Spd
kts
Gust
kts
25/11:30pm 8.1 6.3 8.1 100 0.0 W 7 19 4 10 - - 4.4
25/11:00pm 8.2 6.5 8.2 100 0.0 W 7 15 4 8 - - 4.4
25/10:30pm 8.4 6.7 8.4 100 0.0 W 7 17 4 9 - - 4.4
25/10:00pm 8.4 6.3 8.4 100 0.0 W 9 20 5 11 - - 4.4
25/09:30pm 8.6 6.6 8.6 100 0.0 W 9 19 5 10 - - 4.4
25/09:00pm 8.6 7.0 8.6 100 0.0 W 7 15 4 8 - - 4.4
25/08:30pm 8.6 6.6 8.6 100 0.0 W 9 15 5 8 - - 4.4
25/08:00pm 8.6 6.6 8.6 100 0.0 W 9 20 5 11 - - 4.4
25/07:30pm 8.6 6.6 8.6 100 0.0 W 9 20 5 11 - - 4.4
25/07:00pm 8.5 6.5 8.5 100 0.0 W 9 19 5 10 - - 4.4
25/06:30pm 8.5 6.5 8.5 100 0.0 W 9 15 5 8 - - 4.4
25/06:00pm 8.4 6.3 8.4 100 0.0 W 9 15 5 8 - - 4.2

Other Formats:

Comma delimited format used in spreadsheet applications
http://www.bom.gov.au/fwo/IDS60801/IDS60801.95678.axf

JavaScript Object Notation format (JSON) in row-major order
http://www.bom.gov.au/fwo/IDS60801/IDS60801.95678.json